Time;durP1;ratioP1;P1;durP2;ratioP2;P2;SDS_P1;SDS_P2;PMS_P1;PMS_P2;Temp;Humidity;BMP_temperature;BMP_pressure;BME280_temperature;BME280_humidity;BME280_pressure;Samples;Min_cycle;Max_cycle;Signal;HPM_P1;HPM_P2
2023/01/21 00:01:22;;;;;;;9.00;5.55;;;;;;;14.52;53.70;99575.91;5071935;28;20512;-58
2023/01/21 00:03:50;;;;;;;8.35;5.95;;;;;;;14.49;53.64;99570.81;5071844;28;20049;-59
2023/01/21 00:06:18;;;;;;;8.40;5.22;;;;;;;14.46;53.84;99571.06;5071880;28;20101;-58
2023/01/21 00:08:47;;;;;;;7.68;4.93;;;;;;;14.42;53.91;99575.81;5071776;28;20049;-61
2023/01/21 00:11:15;;;;;;;8.88;5.47;;;;;;;14.39;54.00;99572.56;5071790;28;20048;-58
2023/01/21 00:13:45;;;;;;;8.73;5.50;;;;;;;14.31;53.90;99566.00;5071789;28;20045;-60
2023/01/21 00:16:15;;;;;;;8.13;5.63;;;;;;;14.31;54.06;99574.06;5071664;28;20045;-58
2023/01/21 00:18:43;;;;;;;8.75;5.47;;;;;;;14.28;54.00;99570.78;5071637;28;20489;-58
2023/01/21 00:21:11;;;;;;;8.52;5.63;;;;;;;14.23;53.95;99565.81;5071819;28;20540;-58
2023/01/21 00:23:39;;;;;;;8.38;5.68;;;;;;;14.21;53.75;99578.53;5071823;28;20071;-59
2023/01/21 00:26:10;;;;;;;8.48;5.30;;;;;;;14.17;53.80;99577.06;5071676;28;20090;-60
2023/01/21 00:28:40;;;;;;;8.57;5.65;;;;;;;14.13;53.58;99577.47;5071584;28;20057;-60
2023/01/21 00:31:10;;;;;;;8.18;5.70;;;;;;;14.09;54.07;99584.94;5071817;28;20053;-59
2023/01/21 00:33:40;;;;;;;7.78;5.50;;;;;;;14.06;53.78;99585.19;5071885;28;20131;-58
2023/01/21 00:36:11;;;;;;;8.60;5.80;;;;;;;14.04;53.92;99587.16;5071476;28;20491;-59
2023/01/21 00:38:39;;;;;;;8.05;5.78;;;;;;;13.99;53.92;99584.00;5071617;28;20051;-60
2023/01/21 00:41:10;;;;;;;9.20;5.95;;;;;;;13.98;53.84;99587.66;5071523;28;20044;-58
2023/01/21 00:43:39;;;;;;;9.38;6.35;;;;;;;13.94;54.10;99580.88;5071628;28;20621;-59
2023/01/21 00:46:07;;;;;;;9.32;5.93;;;;;;;13.90;53.86;99580.28;5071669;28;20044;-60
2023/01/21 00:48:36;;;;;;;8.63;6.05;;;;;;;13.87;53.95;99580.53;5071499;28;20049;-58
2023/01/21 00:51:06;;;;;;;9.73;5.68;;;;;;;13.84;53.99;99574.59;5071448;28;20044;-57
2023/01/21 00:53:37;;;;;;;8.23;5.88;;;;;;;13.82;54.15;99581.91;5071606;28;20049;-57
2023/01/21 00:56:09;;;;;;;8.65;5.50;;;;;;;13.81;53.75;99588.25;5071569;28;20067;-58
2023/01/21 00:58:38;;;;;;;8.30;5.95;;;;;;;13.77;53.67;99587.63;5071532;28;20496;-58
2023/01/21 01:01:09;;;;;;;9.02;6.22;;;;;;;13.73;54.06;99579.03;5071318;28;20049;-59
2023/01/21 01:03:38;;;;;;;8.30;6.18;;;;;;;13.71;53.76;99583.66;5071494;28;20044;-57
2023/01/21 01:06:10;;;;;;;8.65;6.28;;;;;;;13.68;53.80;99578.53;5071470;28;20041;-57
2023/01/21 01:08:38;;;;;;;8.48;6.43;;;;;;;13.66;53.63;99583.19;5071310;28;20083;-58
2023/01/21 01:11:07;;;;;;;9.15;6.32;;;;;;;13.60;53.90;99578.31;5071230;28;20049;-58
2023/01/21 01:13:35;;;;;;;8.95;5.97;;;;;;;13.58;54.02;99580.28;5071337;28;20128;-58
2023/01/21 01:16:05;;;;;;;8.48;6.20;;;;;;;13.60;54.17;99588.19;5071257;28;20140;-59
2023/01/21 01:18:35;;;;;;;9.60;6.47;;;;;;;13.52;53.71;99588.84;5071278;28;20106;-58
2023/01/21 01:21:04;;;;;;;8.88;6.45;;;;;;;13.52;53.88;99594.22;5071080;28;20059;-58
2023/01/21 01:23:34;;;;;;;9.90;6.88;;;;;;;13.52;53.96;99604.09;5071152;28;20442;-58
2023/01/21 01:26:04;;;;;;;8.00;5.93;;;;;;;13.49;53.93;99607.84;5071176;28;20254;-59
2023/01/21 01:28:34;;;;;;;8.70;6.13;;;;;;;13.46;53.97;99608.94;5070911;28;20060;-58
2023/01/21 01:31:04;;;;;;;9.25;6.30;;;;;;;13.44;53.83;99599.34;5073466;28;20103;-58
2023/01/21 01:33:33;;;;;;;9.65;6.30;;;;;;;13.41;53.97;99599.56;5074628;28;20044;-58
2023/01/21 01:36:02;;;;;;;9.50;5.85;;;;;;;13.38;54.08;99605.19;5074542;28;20044;-58
2023/01/21 01:38:30;;;;;;;8.32;6.03;;;;;;;13.36;53.78;99596.44;5074700;28;20053;-58
2023/01/21 01:41:00;;;;;;;9.18;6.55;;;;;;;13.35;53.67;99592.91;5074546;28;20051;-58
2023/01/21 01:43:49;;;;;;;8.48;5.68;;;;;;;13.33;53.97;99592.19;5074676;28;20070;-58
2023/01/21 01:46:18;;;;;;;9.75;5.82;;;;;;;13.29;53.92;99584.53;5074564;28;20409;-58
2023/01/21 01:48:50;;;;;;;9.95;6.50;;;;;;;13.24;53.92;99582.22;5074571;28;20066;-58
2023/01/21 01:51:23;;;;;;;9.88;6.25;;;;;;;13.26;54.05;99579.41;5074429;28;20131;-58
2023/01/21 01:53:52;;;;;;;10.45;6.13;;;;;;;13.23;54.05;99579.69;5074407;28;20048;-58
2023/01/21 01:56:22;;;;;;;8.35;6.40;;;;;;;13.18;54.20;99578.19;5074183;28;20489;-58
2023/01/21 01:58:50;;;;;;;8.88;6.20;;;;;;;13.21;54.23;99586.97;5074326;28;20214;-58
2023/01/21 02:01:19;;;;;;;9.57;6.68;;;;;;;13.20;54.13;99593.31;5072918;28;20493;-58
2023/01/21 02:03:53;;;;;;;8.77;5.97;;;;;;;13.16;54.10;99582.81;5074170;28;20106;-58
2023/01/21 02:06:21;;;;;;;8.55;5.57;;;;;;;13.14;54.32;99587.44;5074148;28;20040;-59
2023/01/21 02:08:50;;;;;;;8.60;5.90;;;;;;;13.12;53.95;99576.03;5074043;28;20143;-60
2023/01/21 02:11:21;;;;;;;7.63;5.70;;;;;;;13.09;54.35;99568.22;5074043;28;20044;-60
2023/01/21 02:13:53;;;;;;;8.23;5.72;;;;;;;13.09;54.34;99578.94;5074002;28;20072;-59
2023/01/21 02:16:47;;;;;;;10.05;6.57;;;;;;;13.07;54.05;99583.56;5073857;28;20407;-59
2023/01/21 02:19:54;;;;;;;8.52;5.68;;;;;;;13.05;54.13;99576.63;5073892;28;20044;-58
2023/01/21 02:22:30;;;;;;;7.53;5.25;;;;;;;12.99;54.36;99566.41;5073829;28;20044;-59
2023/01/21 02:25:30;;;;;;;8.60;5.85;;;;;;;13.02;54.26;99574.19;5073922;28;20056;-58
2023/01/21 02:28:41;;;;;;;7.75;5.70;;;;;;;13.00;54.59;99574.31;5073493;28;20127;-60
2023/01/21 02:31:28;;;;;;;7.97;4.70;;;;;;;13.03;54.96;99582.13;5065736;28;20057;-58
2023/01/21 02:34:11;;;;;;;8.82;5.30;;;;;;;13.09;54.91;99588.78;5073799;28;20072;-59
2023/01/21 02:36:52;;;;;;;7.35;4.93;;;;;;;13.16;55.43;99587.31;5073373;28;20062;-59
2023/01/21 02:39:30;;;;;;;6.88;4.60;;;;;;;13.24;55.45;99576.03;5073517;28;20068;-60
2023/01/21 02:42:05;;;;;;;8.93;4.97;;;;;;;13.35;55.32;99586.72;5072316;28;20048;-59
2023/01/21 02:44:39;;;;;;;7.40;4.93;;;;;;;13.44;55.26;99585.94;5073365;28;20076;-59
2023/01/21 02:47:18;;;;;;;6.63;4.63;;;;;;;13.52;55.24;99591.53;5073305;28;20040;-59
2023/01/21 02:49:53;;;;;;;6.70;4.20;;;;;;;13.59;55.14;99594.53;5073256;28;20048;-57
2023/01/21 02:52:23;;;;;;;6.72;4.18;;;;;;;13.64;55.13;99595.88;5073161;28;20416;-59
2023/01/21 02:54:55;;;;;;;7.35;4.50;;;;;;;13.64;55.13;99590.50;5073208;28;20048;-59
2023/01/21 02:57:39;;;;;;;7.13;4.53;;;;;;;13.67;54.95;99589.38;5073206;28;20466;-58
2023/01/21 03:00:13;;;;;;;7.25;4.75;;;;;;;13.67;54.91;99581.34;5073085;28;20105;-59
2023/01/21 03:03:02;;;;;;;6.80;4.47;;;;;;;13.66;54.99;99582.34;5073043;28;20090;-59
2023/01/21 03:05:47;;;;;;;6.57;4.68;;;;;;;13.67;54.99;99584.88;5073077;28;20100;-59
2023/01/21 03:08:20;;;;;;;5.72;4.10;;;;;;;13.67;55.07;99574.16;5073069;28;20485;-59
2023/01/21 03:10:50;;;;;;;;;;;;;;;13.66;54.85;99575.13;5073310;28;20044;-59
2023/01/21 03:19:01;;;;;;;6.07;4.18;;;;;;;13.56;54.91;99576.88;5072665;28;20048;-59
2023/01/21 03:21:32;;;;;;;6.80;4.20;;;;;;;13.59;54.89;99584.66;5072701;28;20098;-59
2023/01/21 03:24:02;;;;;;;7.07;4.28;;;;;;;13.57;54.88;99588.44;5072723;28;20090;-58
2023/01/21 03:26:35;;;;;;;6.60;4.38;;;;;;;13.51;54.74;99592.50;5072510;28;20076;-58
2023/01/21 03:29:08;;;;;;;6.40;4.10;;;;;;;13.51;54.85;99599.66;5072346;28;20056;-58
2023/01/21 03:31:37;;;;;;;;;;;;;;;13.51;54.62;99597.00;5072886;28;20045;-58
2023/01/21 03:34:09;;;;;;;6.40;4.00;;;;;;;13.49;54.79;99586.41;5072471;28;19927;-57
2023/01/21 03:36:44;;;;;;;6.65;4.28;;;;;;;13.46;54.59;99592.88;5072407;28;20060;-58
2023/01/21 03:39:20;;;;;;;6.28;4.32;;;;;;;13.44;54.62;99594.00;5072213;28;20083;-58
2023/01/21 03:41:49;;;;;;;6.90;4.47;;;;;;;13.42;54.53;99599.47;5072239;28;20076;-58
2023/01/21 03:44:17;;;;;;;6.45;4.10;;;;;;;13.40;54.44;99611.28;5072277;28;20051;-58
2023/01/21 03:46:56;;;;;;;6.90;4.60;;;;;;;13.39;54.31;99612.25;5072306;28;20044;-58
2023/01/21 03:49:32;;;;;;;5.88;4.22;;;;;;;13.36;54.46;99623.22;5072099;28;20116;-59
2023/01/21 03:52:06;;;;;;;6.47;4.20;;;;;;;13.33;54.52;99628.84;5072204;28;20045;-60
2023/01/21 03:54:36;;;;;;;6.38;4.38;;;;;;;13.29;54.23;99616.66;5071811;28;20475;-59
2023/01/21 03:57:04;;;;;;;5.65;4.03;;;;;;;13.28;54.54;99614.97;5072037;28;20040;-59
2023/01/21 03:59:32;;;;;;;6.60;4.50;;;;;;;13.26;54.36;99622.28;5072158;28;20044;-60
2023/01/21 04:02:00;;;;;;;6.35;4.22;;;;;;;13.23;54.35;99627.88;5071964;28;20049;-60
2023/01/21 04:04:29;;;;;;;6.35;4.18;;;;;;;13.21;54.30;99628.00;5071951;28;20064;-60
2023/01/21 04:06:57;;;;;;;5.82;4.03;;;;;;;13.21;54.38;99629.81;5072009;28;20041;-60
2023/01/21 04:09:26;;;;;;;6.80;4.50;;;;;;;13.20;54.50;99641.50;5072058;28;20049;-59
2023/01/21 04:11:54;;;;;;;6.57;4.30;;;;;;;13.17;54.32;99642.56;5071841;28;20040;-59
2023/01/21 04:14:22;;;;;;;7.13;4.45;;;;;;;13.14;54.51;99641.00;5071850;28;20067;-59
2023/01/21 04:16:50;;;;;;;6.85;4.72;;;;;;;13.14;54.34;99653.53;5071680;28;20072;-60
2023/01/21 04:19:19;;;;;;;6.18;3.97;;;;;;;13.11;54.38;99646.59;5071874;28;20143;-59
2023/01/21 04:21:47;;;;;;;6.55;4.38;;;;;;;13.10;54.28;99652.06;5071781;28;20075;-60
2023/01/21 04:24:15;;;;;;;7.32;4.90;;;;;;;13.07;54.11;99653.19;5071767;28;20090;-59
2023/01/21 04:26:45;;;;;;;6.72;4.75;;;;;;;13.04;54.02;99660.63;5071729;28;20052;-60
2023/01/21 04:29:13;;;;;;;7.35;4.63;;;;;;;13.03;54.14;99664.25;5071459;28;20493;-59
2023/01/21 04:31:41;;;;;;;6.88;4.78;;;;;;;12.99;53.87;99655.59;5071805;28;20051;-60
2023/01/21 04:34:09;;;;;;;6.80;4.55;;;;;;;12.99;54.02;99662.78;5071556;28;20224;-59
2023/01/21 04:36:37;;;;;;;7.03;4.43;;;;;;;12.98;54.05;99672.66;5071669;28;20435;-60
2023/01/21 04:39:06;;;;;;;6.43;4.28;;;;;;;12.97;54.35;99670.94;5071602;28;20132;-59
2023/01/21 04:41:34;;;;;;;6.22;4.22;;;;;;;12.98;54.44;99667.28;5071646;28;20048;-59
2023/01/21 04:44:03;;;;;;;6.00;4.30;;;;;;;13.04;54.60;99682.03;5071650;28;20044;-60
2023/01/21 04:46:32;;;;;;;6.03;4.13;;;;;;;13.11;54.87;99688.56;5071678;28;20485;-60
2023/01/21 04:49:01;;;;;;;5.80;4.20;;;;;;;13.18;54.92;99690.66;5071621;28;20489;-59
2023/01/21 04:51:33;;;;;;;6.32;3.97;;;;;;;13.28;54.91;99696.16;5071547;28;20048;-60
2023/01/21 04:54:05;;;;;;;6.80;4.13;;;;;;;13.35;54.89;99688.50;5071496;28;20045;-59
2023/01/21 04:56:33;;;;;;;6.03;4.03;;;;;;;13.46;54.75;99693.84;5071408;28;20289;-60
2023/01/21 04:59:04;;;;;;;6.93;4.13;;;;;;;13.56;54.81;99689.44;5071642;28;20047;-60
2023/01/21 05:01:32;;;;;;;5.95;3.80;;;;;;;13.65;54.78;99699.41;5071464;28;20048;-60
2023/01/21 05:04:00;;;;;;;6.70;4.05;;;;;;;13.73;54.58;99706.81;5071496;28;20048;-60
2023/01/21 05:06:28;;;;;;;6.13;3.97;;;;;;;13.78;54.47;99699.22;5074629;28;20048;-60
2023/01/21 05:08:56;;;;;;;5.45;3.85;;;;;;;13.92;54.43;99700.78;5075100;28;20044;-60
2023/01/21 05:11:25;;;;;;;5.40;3.60;;;;;;;14.00;54.54;99701.88;5075168;28;20075;-58
2023/01/21 05:13:53;;;;;;;5.78;3.63;;;;;;;14.10;54.34;99711.84;5074998;28;20044;-60
2023/01/21 05:16:22;;;;;;;5.38;3.42;;;;;;;14.16;54.38;99713.97;5075055;28;20048;-59
2023/01/21 05:18:51;;;;;;;5.45;3.50;;;;;;;14.25;54.23;99714.06;5074939;28;20049;-58
2023/01/21 05:21:19;;;;;;;6.10;3.72;;;;;;;14.36;54.23;99715.84;5074906;28;20119;-58
2023/01/21 05:23:47;;;;;;;5.45;3.53;;;;;;;14.41;54.21;99707.41;5074921;28;20056;-58
2023/01/21 05:26:15;;;;;;;6.03;3.70;;;;;;;14.51;54.02;99717.28;5074888;28;20052;-57
2023/01/21 05:28:43;;;;;;;5.50;3.80;;;;;;;14.63;54.04;99728.78;5074594;28;20059;-58
2023/01/21 05:31:12;;;;;;;5.63;3.80;;;;;;;14.73;53.92;99726.16;5074619;28;20040;-58
2023/01/21 05:33:42;;;;;;;7.15;3.60;;;;;;;14.80;53.84;99722.84;5074706;28;20051;-58
2023/01/21 05:36:11;;;;;;;5.97;3.40;;;;;;;14.88;53.86;99725.72;5074697;28;20538;-58
2023/01/21 05:38:39;;;;;;;5.90;3.60;;;;;;;14.89;53.63;99714.00;5074749;28;20052;-58
2023/01/21 05:41:07;;;;;;;5.28;3.70;;;;;;;14.98;53.55;99725.78;5074653;28;20044;-58
2023/01/21 05:43:35;;;;;;;4.78;3.40;;;;;;;14.99;53.61;99724.78;5074556;28;20054;-58
2023/01/21 05:46:04;;;;;;;6.25;4.00;;;;;;;15.01;53.59;99736.25;5074567;28;20056;-59
2023/01/21 05:48:32;;;;;;;4.53;3.10;;;;;;;15.04;53.45;99741.34;5074483;28;20052;-59
2023/01/21 05:51:01;;;;;;;5.82;4.00;;;;;;;15.06;53.46;99742.06;5074473;28;20123;-59
2023/01/21 05:53:30;;;;;;;5.80;3.67;;;;;;;15.14;53.34;99758.34;5074391;28;20058;-58
2023/01/21 05:55:58;;;;;;;6.68;3.88;;;;;;;15.17;53.41;99759.94;5074331;28;20075;-58
2023/01/21 05:58:27;;;;;;;6.18;3.72;;;;;;;15.21;53.32;99757.81;5074165;28;20045;-58
2023/01/21 06:00:57;;;;;;;5.50;3.78;;;;;;;15.21;53.26;99745.25;5074199;28;20056;-58
2023/01/21 06:03:26;;;;;;;6.07;4.05;;;;;;;15.29;53.20;99764.25;5074064;28;20123;-59
2023/01/21 06:05:54;;;;;;;5.60;3.63;;;;;;;15.30;53.25;99763.25;5074002;28;20064;-59
2023/01/21 06:08:23;;;;;;;5.95;3.35;;;;;;;15.31;53.19;99767.63;5074210;28;20055;-59
2023/01/21 06:10:53;;;;;;;7.32;3.90;;;;;;;15.29;53.08;99769.63;5073923;28;20055;-61
2023/01/21 06:13:22;;;;;;;6.15;3.75;;;;;;;15.30;53.08;99773.16;5074002;28;20045;-59
2023/01/21 06:15:50;;;;;;;5.50;3.60;;;;;;;15.28;53.12;99767.91;5073645;28;20040;-59
2023/01/21 06:18:21;;;;;;;6.18;3.80;;;;;;;15.21;53.11;99756.00;5073952;28;20044;-59
2023/01/21 06:20:49;;;;;;;6.10;3.80;;;;;;;15.22;53.10;99768.44;5073866;28;20079;-59
2023/01/21 06:23:17;;;;;;;6.18;4.00;;;;;;;15.19;53.22;99776.78;5073827;28;20749;-59
2023/01/21 06:25:47;;;;;;;4.97;3.75;;;;;;;15.16;53.16;99771.69;5073701;28;20037;-59
2023/01/21 06:28:15;;;;;;;6.40;4.10;;;;;;;15.12;53.07;99778.28;5073600;28;20056;-59
2023/01/21 06:30:43;;;;;;;6.22;3.83;;;;;;;15.09;53.21;99778.56;5073807;28;20433;-59
2023/01/21 06:33:11;;;;;;;6.50;3.85;;;;;;;15.05;53.21;99795.91;5073785;28;20048;-58
2023/01/21 06:35:39;;;;;;;6.28;3.95;;;;;;;15.01;53.17;99791.78;5073553;28;20052;-59
2023/01/21 06:38:08;;;;;;;6.15;4.10;;;;;;;14.97;53.00;99791.22;5073476;28;20132;-59
2023/01/21 06:40:36;;;;;;;6.30;3.95;;;;;;;14.92;53.17;99796.09;5073444;28;20052;-59
2023/01/21 06:43:05;;;;;;;5.97;4.03;;;;;;;14.88;52.99;99806.28;5073281;28;20117;-59
2023/01/21 06:45:33;;;;;;;5.82;3.90;;;;;;;14.85;53.02;99809.19;5073513;28;20119;-59
2023/01/21 06:48:01;;;;;;;6.82;4.60;;;;;;;14.80;53.07;99806.06;5073130;28;20126;-59
2023/01/21 06:50:30;;;;;;;6.05;4.20;;;;;;;14.75;53.02;99805.59;5073201;28;20567;-59
2023/01/21 06:52:58;;;;;;;6.38;4.07;;;;;;;14.71;52.98;99809.53;5073125;28;20045;-58
2023/01/21 06:55:26;;;;;;;6.13;4.18;;;;;;;14.66;52.94;99811.72;5073095;28;20546;-59
2023/01/21 06:57:54;;;;;;;6.15;3.92;;;;;;;14.64;52.96;99815.53;5072894;28;20064;-59
2023/01/21 07:00:24;;;;;;;6.90;4.28;;;;;;;14.58;52.86;99822.28;5072960;28;20050;-59
2023/01/21 07:02:56;;;;;;;6.80;4.10;;;;;;;14.54;53.03;99823.50;5072986;28;20041;-58
2023/01/21 07:05:24;;;;;;;6.15;4.00;;;;;;;14.49;52.98;99828.41;5073002;28;20049;-58
2023/01/21 07:07:54;;;;;;;5.97;4.00;;;;;;;14.45;53.04;99822.44;5072843;28;20098;-58
2023/01/21 07:10:22;;;;;;;6.00;4.32;;;;;;;14.39;52.94;99822.06;5072661;28;20128;-59
2023/01/21 07:12:51;;;;;;;7.60;4.75;;;;;;;14.35;52.89;99824.13;5072665;28;20052;-59
2023/01/21 07:15:19;;;;;;;6.57;4.65;;;;;;;14.32;53.00;99833.31;5072653;28;20447;-58
2023/01/21 07:17:49;;;;;;;6.97;4.80;;;;;;;14.28;52.86;99841.72;5072569;28;20048;-59
2023/01/21 07:20:18;;;;;;;7.07;4.80;;;;;;;14.24;52.81;99846.47;5072490;28;20049;-59
2023/01/21 07:22:46;;;;;;;6.85;4.70;;;;;;;14.20;52.84;99853.09;5072519;28;20127;-58
2023/01/21 07:25:14;;;;;;;6.72;4.47;;;;;;;14.16;52.95;99856.13;5072608;28;20404;-58
2023/01/21 07:27:43;;;;;;;8.02;4.95;;;;;;;14.13;53.06;99867.97;5071912;28;20139;-59
2023/01/21 07:30:15;;;;;;;6.70;4.57;;;;;;;14.07;53.08;99868.44;5072321;28;20045;-58
2023/01/21 07:32:44;;;;;;;6.45;4.13;;;;;;;14.06;53.09;99877.47;5072428;28;20110;-58
2023/01/21 07:35:14;;;;;;;6.28;4.45;;;;;;;13.98;52.94;99879.91;5072222;28;20072;-59
2023/01/21 07:37:43;;;;;;;6.53;4.20;;;;;;;13.98;53.03;99890.66;5072315;28;20124;-58
2023/01/21 07:40:12;;;;;;;6.47;4.43;;;;;;;13.95;52.98;99893.59;5072160;28;20048;-58
2023/01/21 07:42:40;;;;;;;7.00;4.72;;;;;;;13.93;53.08;99895.53;5072206;28;20047;-58
2023/01/21 07:45:09;;;;;;;6.78;4.18;;;;;;;13.89;52.95;99894.06;5072201;28;20044;-58
2023/01/21 07:47:37;;;;;;;6.20;4.07;;;;;;;13.86;53.12;99895.16;5072170;28;20056;-58
2023/01/21 07:50:07;;;;;;;6.57;4.15;;;;;;;13.82;53.12;99882.13;5072095;28;20044;-58
2023/01/21 07:52:37;;;;;;;5.53;3.65;;;;;;;13.86;53.14;99895.16;5071952;28;20429;-58
2023/01/21 07:55:07;;;;;;;6.35;4.18;;;;;;;13.90;53.28;99898.47;5072107;28;20493;-57
2023/01/21 07:57:38;;;;;;;6.17;3.83;;;;;;;13.97;53.68;99903.19;5072100;28;20503;-58
2023/01/21 08:00:10;;;;;;;6.50;4.00;;;;;;;14.05;53.77;99916.00;5071955;28;20044;-57
2023/01/21 08:02:38;;;;;;;5.80;3.60;;;;;;;14.10;53.70;99913.81;5071886;28;20547;-57
2023/01/21 08:05:07;;;;;;;6.10;3.85;;;;;;;14.17;53.48;99915.00;5071871;28;20139;-60
2023/01/21 08:07:36;;;;;;;6.65;3.90;;;;;;;14.21;53.83;99913.81;5071966;28;20045;-59
2023/01/21 08:10:05;;;;;;;6.10;3.90;;;;;;;14.28;53.29;99908.78;5071903;28;20048;-59
2023/01/21 08:12:33;;;;;;;5.43;3.65;;;;;;;14.29;53.24;99913.19;5071866;28;20040;-59
2023/01/21 08:15:01;;;;;;;6.03;3.65;;;;;;;14.29;53.36;99919.41;5071684;28;20052;-59
2023/01/21 08:17:30;;;;;;;5.45;3.47;;;;;;;14.31;53.31;99913.91;5071751;28;20055;-58
2023/01/21 08:19:58;;;;;;;5.63;3.53;;;;;;;14.30;53.35;99915.75;5071653;28;20273;-58
2023/01/21 08:22:26;;;;;;;6.07;3.90;;;;;;;14.30;53.19;99913.06;5071831;28;20040;-58
2023/01/21 08:24:56;;;;;;;5.78;3.70;;;;;;;14.29;53.21;99914.03;5071826;28;20052;-54
2023/01/21 08:27:24;;;;;;;5.80;3.53;;;;;;;14.28;53.31;99909.66;5071513;28;20070;-57
2023/01/21 08:29:52;;;;;;;5.68;3.50;;;;;;;14.25;53.26;99915.25;5071543;28;20048;-58
2023/01/21 08:32:20;;;;;;;5.80;3.60;;;;;;;14.24;53.28;99916.22;5071857;28;20044;-58
2023/01/21 08:34:49;;;;;;;5.88;3.92;;;;;;;14.20;53.30;99919.31;5071431;28;20120;-58
2023/01/21 08:37:17;;;;;;;5.40;3.33;;;;;;;14.19;53.33;99926.50;5071570;28;20048;-58
2023/01/21 08:39:45;;;;;;;6.25;3.80;;;;;;;14.18;53.27;99932.81;5071931;28;20048;-57
2023/01/21 08:42:15;;;;;;;6.13;3.80;;;;;;;14.17;53.19;99930.25;5075639;28;20055;-58
2023/01/21 08:44:44;;;;;;;5.60;3.67;;;;;;;14.13;53.20;99935.03;5075686;28;20040;-58
2023/01/21 08:47:13;;;;;;;5.53;3.70;;;;;;;14.12;53.27;99938.69;5075575;28;20124;-58
2023/01/21 08:49:44;;;;;;;5.53;3.50;;;;;;;14.10;53.35;99939.78;5075510;28;20047;-58
2023/01/21 08:52:12;;;;;;;6.05;3.80;;;;;;;14.04;53.23;99936.59;5075449;28;20068;-58
2023/01/21 08:54:41;;;;;;;6.85;3.70;;;;;;;14.04;53.15;99935.75;5075257;28;20509;-57
2023/01/21 08:57:10;;;;;;;5.70;3.75;;;;;;;14.01;53.22;99938.69;5075296;28;20052;-59
2023/01/21 08:59:39;;;;;;;7.00;3.80;;;;;;;13.97;53.25;99945.25;5075395;28;20083;-57
2023/01/21 09:02:08;;;;;;;5.82;3.85;;;;;;;13.96;53.21;99947.09;5075253;28;20072;-58
2023/01/21 09:04:36;;;;;;;5.63;3.60;;;;;;;13.94;53.15;99953.53;5075427;28;20049;-57
2023/01/21 09:07:04;;;;;;;6.28;4.03;;;;;;;13.91;53.46;99953.78;5075201;28;20044;-55
2023/01/21 09:09:33;;;;;;;7.72;3.70;;;;;;;13.89;53.58;99955.72;5075003;28;20047;-57
2023/01/21 09:12:02;;;;;;;6.95;4.03;;;;;;;13.86;53.63;99955.97;5075079;28;20050;-58
2023/01/21 09:14:30;;;;;;;5.90;3.80;;;;;;;13.84;53.62;99955.25;5074981;28;20067;-57
2023/01/21 09:16:59;;;;;;;7.25;3.60;;;;;;;13.81;53.32;99944.78;5074966;28;20044;-58
2023/01/21 09:19:28;;;;;;;7.63;3.90;;;;;;;13.80;53.42;99953.75;5074898;28;20074;-57
2023/01/21 09:21:56;;;;;;;8.00;4.30;;;;;;;13.78;53.37;99959.25;5074627;28;20048;-58
2023/01/21 09:24:24;;;;;;;6.07;3.80;;;;;;;13.74;53.35;99960.47;5074794;28;20045;-57
2023/01/21 09:26:54;;;;;;;6.93;4.18;;;;;;;13.66;53.35;99947.66;5074563;28;20048;-58
2023/01/21 09:29:22;;;;;;;5.95;3.83;;;;;;;13.69;53.45;99968.84;5074701;28;20045;-56
2023/01/21 09:31:50;;;;;;;7.43;4.38;;;;;;;13.67;53.44;99962.75;5073454;28;20075;-58
2023/01/21 09:34:20;;;;;;;6.38;3.95;;;;;;;13.65;53.36;99961.19;5073768;28;20114;-57
2023/01/21 09:36:48;;;;;;;6.70;3.92;;;;;;;13.62;53.19;99954.25;5074188;28;20531;-58
2023/01/21 09:39:16;;;;;;;7.70;3.90;;;;;;;13.60;53.29;99963.34;5072840;28;20048;-57
2023/01/21 09:41:49;;;;;;;6.25;4.03;;;;;;;13.59;53.25;99967.84;5073685;28;20408;-58
2023/01/21 09:44:25;;;;;;;7.00;4.20;;;;;;;13.56;53.25;99960.06;5074201;28;20045;-58
2023/01/21 09:46:58;;;;;;;7.63;4.15;;;;;;;13.54;53.21;99955.81;5073827;28;20048;-57
2023/01/21 09:49:28;;;;;;;;;;;;;;;13.52;53.23;99955.94;5074277;28;20044;-58
2023/01/21 09:52:03;;;;;;;7.13;4.05;;;;;;;13.49;53.12;99950.78;5072883;28;19963;-57
2023/01/21 09:54:33;;;;;;;5.80;4.07;;;;;;;13.48;53.25;99948.22;5073787;28;20047;-58
2023/01/21 09:57:30;;;;;;;6.18;4.22;;;;;;;13.45;53.38;99960.91;5073864;28;20051;-57
2023/01/21 10:00:17;;;;;;;6.28;4.18;;;;;;;13.42;53.62;99955.78;5073828;28;20040;-58
2023/01/21 10:02:57;;;;;;;6.78;4.15;;;;;;;13.41;53.35;99955.88;5073727;28;20094;-57
2023/01/21 10:05:45;;;;;;;6.85;4.10;;;;;;;13.38;53.68;99948.06;5073678;28;20045;-58
2023/01/21 10:08:22;;;;;;;7.43;4.53;;;;;;;13.37;53.81;99949.91;5073524;28;20370;-58
2023/01/21 10:10:52;;;;;;;5.68;3.92;;;;;;;13.36;53.79;99952.72;5073250;28;20051;-58
2023/01/21 10:13:42;;;;;;;6.60;4.40;;;;;;;13.34;53.77;99950.16;5073753;28;20079;-58
2023/01/21 10:16:17;;;;;;;8.90;4.85;;;;;;;13.32;53.71;99949.41;5073493;28;20098;-57
2023/01/21 10:18:48;;;;;;;6.82;4.00;;;;;;;13.31;53.62;99963.75;5073291;28;20044;-58
2023/01/21 10:21:27;;;;;;;6.38;4.28;;;;;;;13.30;53.55;99956.69;5073131;28;20044;-57
2023/01/21 10:24:02;;;;;;;7.78;4.60;;;;;;;13.27;53.83;99958.75;5073272;28;20091;-58
2023/01/21 10:26:33;;;;;;;7.35;3.97;;;;;;;13.27;54.04;99964.97;5073208;28;20044;-56
2023/01/21 10:29:02;;;;;;;7.05;4.38;;;;;;;13.25;53.66;99969.59;5073057;28;20072;-58
2023/01/21 10:31:39;;;;;;;7.20;3.92;;;;;;;13.23;53.90;99970.69;5072864;28;20062;-59
2023/01/21 10:34:13;;;;;;;7.55;4.32;;;;;;;13.22;53.75;99974.31;5073120;28;20501;-59
2023/01/21 10:36:57;;;;;;;6.63;4.13;;;;;;;13.18;53.78;99968.31;5073189;28;20090;-59
2023/01/21 10:39:38;;;;;;;6.18;4.15;;;;;;;13.16;53.83;99979.16;5073354;28;20058;-59
2023/01/21 10:42:33;;;;;;;7.88;4.30;;;;;;;13.16;53.93;99976.47;5073427;28;20067;-59
2023/01/21 10:45:10;;;;;;;6.95;4.15;;;;;;;13.13;54.07;99981.22;5073338;28;20053;-59
2023/01/21 10:47:47;;;;;;;7.53;4.18;;;;;;;13.12;53.90;99979.47;5073323;28;20056;-59
2023/01/21 10:50:28;;;;;;;7.05;4.60;;;;;;;13.11;53.95;99983.13;5073184;28;20040;-59
2023/01/21 10:53:05;;;;;;;7.63;5.13;;;;;;;13.09;53.80;99988.59;5073246;28;20087;-59
2023/01/21 10:55:44;;;;;;;7.00;4.68;;;;;;;13.07;53.92;99984.34;5073178;28;20079;-59
2023/01/21 10:58:24;;;;;;;6.25;4.03;;;;;;;13.05;53.89;99973.75;5073589;28;20466;-59
2023/01/21 11:00:55;;;;;;;6.80;4.38;;;;;;;13.04;54.02;99980.06;5072931;28;20466;-59
2023/01/21 11:03:32;;;;;;;6.90;4.70;;;;;;;13.00;53.97;99969.69;5072140;28;20131;-59
2023/01/21 11:06:03;;;;;;;6.30;3.95;;;;;;;12.99;54.05;99968.84;5072954;28;20829;-59
2023/01/21 11:08:32;;;;;;;7.35;4.18;;;;;;;13.01;54.03;99971.38;5072762;28;20048;-60
2023/01/21 11:11:02;;;;;;;6.22;4.22;;;;;;;12.99;53.93;99968.84;5071744;28;20044;-59
2023/01/21 11:13:31;;;;;;;7.82;4.72;;;;;;;12.97;54.05;99973.47;5052253;28;20041;-58
2023/01/21 11:16:00;;;;;;;7.25;4.30;;;;;;;12.98;54.04;99972.47;5052083;28;20044;-58
2023/01/21 11:18:32;;;;;;;7.75;4.28;;;;;;;12.97;54.05;99970.78;5052232;28;20060;-58
2023/01/21 11:21:02;;;;;;;7.22;4.32;;;;;;;12.95;54.08;99967.38;5051900;28;20044;-58
2023/01/21 11:23:34;;;;;;;6.78;4.38;;;;;;;12.94;54.16;99972.84;5052254;28;20052;-58
2023/01/21 11:26:05;;;;;;;8.82;4.72;;;;;;;12.93;54.08;99968.44;5051814;28;20041;-59
2023/01/21 11:28:36;;;;;;;6.43;4.22;;;;;;;12.92;54.13;99964.91;5051808;28;20085;-59
2023/01/21 11:31:10;;;;;;;6.75;4.55;;;;;;;12.90;54.11;99958.81;5051961;28;20063;-57
2023/01/21 11:33:40;;;;;;;7.68;4.65;;;;;;;12.90;54.22;99961.47;5051879;28;20049;-57
2023/01/21 11:36:16;;;;;;;8.15;4.78;;;;;;;12.90;54.27;99961.47;5051768;28;20045;-58
2023/01/21 11:38:49;;;;;;;7.25;5.05;;;;;;;12.89;54.11;99963.31;5051800;28;20049;-58
2023/01/21 11:41:21;;;;;;;7.00;4.78;;;;;;;12.89;54.13;99962.47;5051996;28;20056;-56
2023/01/21 11:43:52;;;;;;;7.80;4.72;;;;;;;12.88;54.30;99958.06;5051717;28;20044;-58
2023/01/21 11:46:38;;;;;;;7.88;5.00;;;;;;;12.87;54.27;99956.38;5051496;28;20634;-58
2023/01/21 11:49:28;;;;;;;7.53;4.63;;;;;;;12.86;54.46;99957.34;5051646;28;20076;-57
2023/01/21 11:52:14;;;;;;;7.63;4.75;;;;;;;12.85;54.32;99952.97;5051671;28;20072;-58
2023/01/21 11:54:44;;;;;;;8.63;4.85;;;;;;;12.84;54.28;99953.94;5051648;28;20083;-58
2023/01/21 11:57:27;;;;;;;6.90;4.65;;;;;;;12.84;54.31;99960.13;5051324;28;20068;-59
2023/01/21 11:59:58;;;;;;;;;;;;;;;12.83;54.35;99958.41;5051999;28;20401;-57